Time;durP1;ratioP1;P1;durP2;ratioP2;P2;SDS_P1;SDS_P2;PMS_P1;PMS_P2;Temp;Humidity;BMP_temperature;BMP_pressure;BME280_temperature;BME280_humidity;BME280_pressure;Samples;Min_cycle;Max_cycle;Signal;HPM_P1;HPM_P2
2023/01/24 00:01:00;;;;;;;23.13;17.55;;;2.80;1.00;;;;;;5012644;28;20081;-64
2023/01/24 00:03:26;;;;;;;24.83;18.50;;;2.80;1.00;;;;;;5029590;28;20514;-64
2023/01/24 00:05:52;;;;;;;25.58;19.48;;;2.80;1.00;;;;;;5012169;28;20037;-64
2023/01/24 00:08:22;;;;;;;26.10;19.23;;;2.70;1.00;;;;;;4994959;28;20040;-64
2023/01/24 00:10:49;;;;;;;22.60;17.10;;;2.80;1.00;;;;;;4995348;28;20090;-64
2023/01/24 00:13:15;;;;;;;25.90;19.27;;;2.80;1.00;;;;;;5011318;28;20048;-63
2023/01/24 00:15:41;;;;;;;24.08;19.13;;;2.80;1.00;;;;;;5030269;28;20125;-63
2023/01/24 00:18:07;;;;;;;26.88;18.77;;;2.80;1.00;;;;;;5011563;28;20251;-66
2023/01/24 00:20:33;;;;;;;27.48;21.65;;;2.70;1.00;;;;;;5028849;28;20038;-64
2023/01/24 00:22:59;;;;;;;26.75;21.80;;;2.80;1.00;;;;;;5011580;28;20036;-64
2023/01/24 00:25:25;;;;;;;27.35;21.33;;;2.70;1.00;;;;;;5011767;28;20150;-64
2023/01/24 00:27:50;;;;;;;24.77;20.35;;;2.80;1.00;;;;;;5010720;28;20126;-64
2023/01/24 00:30:16;;;;;;;27.88;21.48;;;2.80;1.00;;;;;;4995978;28;20037;-64
2023/01/24 00:32:42;;;;;;;27.90;21.45;;;2.70;1.00;;;;;;5010895;28;20044;-63
2023/01/24 00:35:08;;;;;;;31.88;23.33;;;2.80;1.00;;;;;;5029199;28;20037;-64
2023/01/24 00:37:33;;;;;;;29.33;21.25;;;2.80;1.00;;;;;;5019560;28;20075;-64
2023/01/24 00:39:59;;;;;;;27.23;21.08;;;2.70;1.00;;;;;;4999594;28;20148;-64
2023/01/24 00:42:25;;;;;;;28.55;22.20;;;2.70;1.00;;;;;;5034905;28;20041;-64
2023/01/24 00:44:51;;;;;;;32.22;22.42;;;2.70;1.00;;;;;;4998677;28;20360;-63
2023/01/24 00:47:16;;;;;;;27.70;20.13;;;2.70;1.00;;;;;;5034512;28;20041;-64
2023/01/24 00:49:42;;;;;;;28.75;22.80;;;2.70;6.40;;;;;;5033009;28;20076;-63
2023/01/24 00:52:08;;;;;;;28.88;22.10;;;2.70;8.20;;;;;;5015334;28;20083;-63
2023/01/24 00:54:34;;;;;;;26.75;21.25;;;2.70;13.20;;;;;;5033730;28;20517;-64
2023/01/24 00:56:59;;;;;;;29.75;22.70;;;2.80;18.80;;;;;;5015202;28;20068;-64
2023/01/24 00:59:25;;;;;;;31.75;23.13;;;2.80;24.60;;;;;;5033724;28;20129;-64
2023/01/24 01:01:50;;;;;;;31.10;22.88;;;2.70;28.30;;;;;;5016073;28;21194;-64
2023/01/24 01:04:16;;;;;;;29.30;23.52;;;2.70;34.60;;;;;;5016167;28;20253;-64
2023/01/24 01:06:44;;;;;;;31.42;23.15;;;2.80;40.80;;;;;;5033342;28;20523;-64
2023/01/24 01:09:09;;;;;;;31.20;22.98;;;2.70;45.80;;;;;;4984597;28;20345;-63
2023/01/24 01:11:41;;;;;;;30.52;23.60;;;2.80;50.40;;;;;;5015972;28;20329;-64
2023/01/24 01:14:08;;;;;;;28.15;21.92;;;2.70;57.30;;;;;;4982654;28;20041;-64
2023/01/24 01:16:37;;;;;;;30.63;22.83;;;2.70;65.10;;;;;;5015340;28;20475;-64
2023/01/24 01:19:04;;;;;;;31.42;24.80;;;2.70;71.40;;;;;;5033342;28;20094;-64
2023/01/24 01:21:30;;;;;;;32.45;23.65;;;2.70;72.30;;;;;;5015247;28;20102;-64
2023/01/24 01:23:56;;;;;;;31.88;24.50;;;2.70;75.40;;;;;;5006216;28;20033;-65
2023/01/24 01:26:22;;;;;;;31.40;23.63;;;2.70;78.40;;;;;;5032454;28;20039;-64
2023/01/24 01:28:48;;;;;;;29.17;24.05;;;2.70;85.60;;;;;;5033682;28;20033;-63
2023/01/24 01:31:15;;;;;;;32.47;25.50;;;2.70;91.80;;;;;;5016406;28;20255;-63
2023/01/24 01:33:42;;;;;;;31.58;24.80;;;2.70;95.90;;;;;;5033524;28;20514;-65
2023/01/24 01:36:08;;;;;;;32.42;25.30;;;2.70;99.90;;;;;;5009844;28;20368;-62
2023/01/24 01:38:34;;;;;;;35.45;26.25;;;2.70;99.90;;;;;;5029334;28;20823;-63
2023/01/24 01:40:59;;;;;;;35.05;27.15;;;2.80;99.90;;;;;;4993454;28;20088;-64
2023/01/24 01:43:28;;;;;;;34.30;26.20;;;2.80;99.90;;;;;;4993928;28;20083;-65
2023/01/24 01:46:00;;;;;;;38.65;26.75;;;2.80;99.90;;;;;;4997659;28;20435;-63
2023/01/24 01:48:37;;;;;;;36.58;27.70;;;2.80;99.90;;;;;;5015183;28;20048;-64
2023/01/24 01:51:37;;;;;;;34.05;27.20;;;2.90;99.90;;;;;;5018346;28;20084;-64
2023/01/24 01:54:19;;;;;;;39.40;28.02;;;2.80;99.90;;;;;;5014457;28;20537;-65
2023/01/24 01:57:07;;;;;;;42.53;29.65;;;2.80;99.90;;;;;;4997478;28;21409;-64
2023/01/24 01:59:38;;;;;;;40.25;30.05;;;2.90;99.90;;;;;;5031509;28;20095;-64
2023/01/24 02:02:07;;;;;;;42.88;30.10;;;2.90;99.90;;;;;;5013690;28;20041;-65
2023/01/24 02:04:35;;;;;;;39.15;28.58;;;2.90;99.90;;;;;;5013494;28;20060;-65
2023/01/24 02:07:04;;;;;;;42.03;30.48;;;2.90;99.90;;;;;;5013323;28;20147;-65
2023/01/24 02:09:39;;;;;;;39.60;29.58;;;3.00;99.90;;;;;;4997205;28;20407;-64
2023/01/24 02:12:10;;;;;;;41.45;29.27;;;3.00;99.90;;;;;;5013015;28;20309;-65
2023/01/24 02:17:21;;;;;;;35.53;27.02;;;3.00;99.90;;;;;;5030811;28;20057;-65
2023/01/24 02:19:59;;;;;;;37.28;28.30;;;2.90;99.90;;;;;;5030980;28;20049;-65
2023/01/24 02:23:04;;;;;;;39.08;29.27;;;3.00;99.90;;;;;;5031871;28;20293;-64
2023/01/24 02:25:44;;;;;;;38.13;28.23;;;3.00;99.90;;;;;;5002171;28;20057;-65
2023/01/24 02:28:10;;;;;;;39.05;29.30;;;3.00;99.90;;;;;;4996507;28;20083;-64
2023/01/24 02:30:37;;;;;;;42.08;29.08;;;3.00;99.90;;;;;;5012174;28;20522;-63
2023/01/24 02:33:17;;;;;;;40.55;29.33;;;2.90;99.90;;;;;;5014307;28;20392;-64
2023/01/24 02:35:43;;;;;;;35.35;27.30;;;3.00;99.90;;;;;;5031501;28;20040;-64
2023/01/24 02:38:26;;;;;;;33.35;25.65;;;2.90;99.90;;;;;;5013236;28;20139;-63
2023/01/24 02:41:06;;;;;;;35.42;26.95;;;3.00;99.90;;;;;;5009988;28;20277;-64
2023/01/24 02:43:36;;;;;;;35.00;25.77;;;3.00;99.90;;;;;;4994311;28;20049;-64
2023/01/24 02:46:03;;;;;;;34.03;25.40;;;3.00;99.90;;;;;;5008769;28;20033;-64
2023/01/24 02:48:29;;;;;;;34.53;25.55;;;3.00;99.90;;;;;;5011002;28;20515;-65
2023/01/24 02:53:40;;;;;;;32.63;23.70;;;2.90;99.90;;;;;;5011354;28;20547;-65
2023/01/24 02:58:53;;;;;;;21.90;17.30;;;3.00;99.90;;;;;;5011601;28;20641;-65
2023/01/24 03:01:20;;;;;;;23.77;20.05;;;3.00;99.90;;;;;;5010162;28;20045;-65
2023/01/24 03:03:47;;;;;;;26.65;21.55;;;3.00;99.90;;;;;;5009443;28;20341;-65
2023/01/24 03:06:14;;;;;;;29.63;22.55;;;3.00;99.90;;;;;;5034759;28;20129;-65
2023/01/24 03:08:40;;;;;;;29.08;23.45;;;3.10;99.90;;;;;;5009913;28;20105;-64
2023/01/24 03:11:07;;;;;;;29.00;21.52;;;3.00;99.90;;;;;;5010044;28;20037;-64
2023/01/24 03:35:31;;;;;;;32.50;26.10;;;3.00;99.90;;;;;;5010098;28;20041;-64
2023/01/24 03:40:41;;;;;;;21.33;17.80;;;3.00;99.90;;;;;;5021102;28;20060;-63
2023/01/24 03:43:07;;;;;;;24.85;19.45;;;3.00;99.90;;;;;;4980369;28;20063;-65
2023/01/24 03:45:35;;;;;;;27.75;20.73;;;3.10;99.90;;;;;;5011770;28;20764;-63
2023/01/24 03:48:09;;;;;;;27.85;22.75;;;3.10;99.90;;;;;;5030162;28;20045;-64
2023/01/24 03:53:25;;;;;;;29.65;23.00;;;3.10;99.90;;;;;;5029399;28;20037;-63
2023/01/24 03:55:57;;;;;;;31.33;24.40;;;3.00;99.90;;;;;;5011783;28;20048;-64
2023/01/24 03:58:24;;;;;;;32.45;25.13;;;3.10;99.90;;;;;;5010056;28;20033;-64
2023/01/24 04:00:51;;;;;;;28.00;23.13;;;3.00;99.90;;;;;;5000646;28;20106;-64
2023/01/24 04:03:17;;;;;;;29.40;23.10;;;3.10;99.90;;;;;;5011536;28;20351;-63
2023/01/24 04:05:42;;;;;;;32.42;24.95;;;3.10;99.90;;;;;;4994515;28;20041;-62
2023/01/24 04:08:08;;;;;;;31.75;24.70;;;3.10;99.90;;;;;;5030040;28;20065;-62
2023/01/24 04:10:34;;;;;;;33.22;24.92;;;3.10;99.90;;;;;;5028292;28;20041;-63
2023/01/24 04:13:00;;;;;;;28.17;21.13;;;3.00;99.90;;;;;;5029612;28;20032;-63
2023/01/24 04:15:29;;;;;;;11.30;10.02;;;3.10;99.90;;;;;;5011669;28;21795;-62
2023/01/24 04:17:56;;;;;;;8.48;7.15;;;3.00;99.90;;;;;;5029508;28;20235;-62
2023/01/24 04:20:22;;;;;;;11.15;8.88;;;3.10;93.50;;;;;;5028689;28;20290;-62
2023/01/24 04:22:48;;;;;;;17.60;14.55;;;3.00;62.10;;;;;;5012096;28;20041;-63
2023/01/24 04:25:14;;;;;;;17.42;15.57;;;3.10;5.10;;;;;;5012247;28;20475;-63
2023/01/24 04:27:40;;;;;;;20.83;17.75;;;3.10;9.40;;;;;;5010007;28;20421;-63
2023/01/24 04:30:08;;;;;;;25.98;20.58;;;3.00;7.00;;;;;;5029230;28;20052;-63
2023/01/24 04:32:35;;;;;;;23.30;19.10;;;3.10;5.50;;;;;;5012185;28;20713;-63
2023/01/24 04:35:03;;;;;;;16.75;14.63;;;3.00;18.50;;;;;;5012463;28;20411;-63
2023/01/24 04:37:29;;;;;;;13.18;11.75;;;3.10;19.80;;;;;;5029354;28;20124;-64
2023/01/24 04:39:54;;;;;;;9.60;8.45;;;3.10;1.00;;;;;;5011999;28;20408;-62
2023/01/24 04:42:20;;;;;;;10.38;9.07;;;3.10;1.00;;;;;;5028653;28;20043;-63
2023/01/24 04:44:46;;;;;;;10.60;9.48;;;3.10;1.00;;;;;;5028856;28;20360;-62
2023/01/24 04:47:12;;;;;;;10.85;9.75;;;3.10;1.00;;;;;;5009989;28;20049;-63
2023/01/24 04:49:37;;;;;;;12.00;10.82;;;3.10;1.00;;;;;;5011730;28;20740;-63
2023/01/24 04:52:03;;;;;;;14.05;12.55;;;3.10;1.00;;;;;;5020569;28;20282;-63
2023/01/24 04:54:29;;;;;;;17.02;14.80;;;3.00;1.00;;;;;;5028563;28;20956;-63
2023/01/24 04:56:55;;;;;;;17.17;14.90;;;3.10;1.00;;;;;;5028681;28;20033;-64
2023/01/24 04:59:20;;;;;;;16.77;13.88;;;3.10;1.00;;;;;;5029911;28;20033;-63
2023/01/24 05:01:46;;;;;;;16.95;14.82;;;3.10;1.00;;;;;;5029118;28;20517;-63
2023/01/24 05:04:12;;;;;;;19.15;16.33;;;3.00;1.00;;;;;;5011856;28;20670;-64
2023/01/24 05:06:38;;;;;;;14.65;12.55;;;3.00;1.00;;;;;;5028320;28;20038;-62
2023/01/24 05:09:04;;;;;;;14.18;12.68;;;3.10;1.00;;;;;;5011146;28;20041;-63
2023/01/24 05:11:30;;;;;;;13.70;12.10;;;3.00;1.00;;;;;;5028445;28;20111;-63
2023/01/24 05:13:55;;;;;;;13.48;11.00;;;3.00;1.00;;;;;;5029001;28;20052;-63
2023/01/24 05:16:21;;;;;;;19.33;16.20;;;3.00;1.00;;;;;;5029784;28;20036;-63
2023/01/24 05:18:47;;;;;;;19.65;15.93;;;3.00;1.00;;;;;;5031861;28;20065;-63
2023/01/24 05:21:16;;;;;;;22.70;18.20;;;3.00;1.00;;;;;;5015152;28;20045;-62
2023/01/24 05:23:42;;;;;;;19.88;17.42;;;3.00;99.90;;;;;;5015252;28;20055;-65
2023/01/24 05:26:08;;;;;;;18.10;16.17;;;3.00;99.90;;;;;;4998151;28;20388;-63
2023/01/24 05:28:35;;;;;;;18.92;16.88;;;3.00;99.90;;;;;;5031697;28;20447;-64
2023/01/24 05:31:02;;;;;;;19.23;15.57;;;2.90;99.90;;;;;;5032119;28;20121;-63
2023/01/24 05:33:28;;;;;;;20.20;17.65;;;3.00;1.00;;;;;;5032617;28;20446;-62
2023/01/24 05:36:01;;;;;;;13.07;9.65;;;3.00;99.90;;;;;;5014990;28;20439;-62
2023/01/24 05:38:27;;;;;;;17.73;15.00;;;2.90;99.90;;;;;;5032473;28;20037;-63
2023/01/24 05:40:53;;;;;;;20.40;16.55;;;3.00;99.90;;;;;;5014325;28;20238;-63
2023/01/24 05:43:19;;;;;;;17.75;13.38;;;3.00;99.90;;;;;;4998566;28;20510;-62
2023/01/24 05:45:44;;;;;;;18.10;15.85;;;2.90;99.90;;;;;;5015208;28;20040;-62
2023/01/24 05:48:10;;;;;;;17.60;14.93;;;2.90;99.90;;;;;;4996543;28;20044;-62
2023/01/24 05:50:36;;;;;;;16.80;14.40;;;2.90;99.90;;;;;;4999475;28;20124;-62
2023/01/24 05:53:02;;;;;;;17.80;14.40;;;2.80;99.90;;;;;;5014207;28;20037;-63
2023/01/24 05:55:28;;;;;;;20.30;17.73;;;2.80;99.90;;;;;;5015178;28;20487;-63
2023/01/24 05:57:54;;;;;;;18.48;16.38;;;2.80;99.90;;;;;;5031995;28;20049;-62
2023/01/24 06:00:20;;;;;;;19.63;16.58;;;2.90;99.90;;;;;;5033061;28;20041;-64
2023/01/24 06:02:46;;;;;;;18.20;15.50;;;2.80;99.90;;;;;;5013950;28;20727;-65
2023/01/24 06:05:12;;;;;;;18.83;16.00;;;2.80;99.90;;;;;;5033188;28;20036;-63
2023/01/24 06:07:37;;;;;;;18.27;16.10;;;2.80;99.90;;;;;;5014675;28;20160;-63
2023/01/24 06:10:03;;;;;;;17.33;15.38;;;2.80;99.90;;;;;;5031524;28;20040;-64
2023/01/24 06:12:29;;;;;;;21.70;17.33;;;2.80;99.90;;;;;;5013202;28;20487;-64
2023/01/24 06:14:55;;;;;;;19.50;16.10;;;2.80;99.90;;;;;;4997019;28;20036;-64
2023/01/24 06:17:20;;;;;;;22.50;17.95;;;2.70;99.90;;;;;;5014631;28;20144;-64
2023/01/24 06:19:46;;;;;;;17.80;14.18;;;2.70;99.90;;;;;;5032426;28;20045;-64
2023/01/24 06:22:21;;;;;;;19.73;16.35;;;2.70;99.90;;;;;;5015255;28;20029;-64
2023/01/24 06:24:47;;;;;;;22.77;18.30;;;2.70;99.90;;;;;;5013054;28;20114;-64
2023/01/24 06:27:13;;;;;;;20.92;18.20;;;2.70;99.90;;;;;;5014141;28;20041;-64
2023/01/24 06:29:39;;;;;;;22.40;19.52;;;2.70;99.90;;;;;;4996491;28;20129;-64
2023/01/24 06:32:10;;;;;;;23.08;19.67;;;2.70;99.90;;;;;;5012375;28;20096;-64
2023/01/24 06:34:50;;;;;;;21.15;18.15;;;2.70;99.90;;;;;;4988921;28;20040;-64
2023/01/24 06:37:18;;;;;;;22.05;16.58;;;2.80;99.90;;;;;;5013543;28;20037;-65
2023/01/24 06:39:51;;;;;;;22.38;17.48;;;2.70;99.90;;;;;;5013272;28;20045;-63
2023/01/24 06:42:18;;;;;;;25.73;20.45;;;2.70;99.90;;;;;;4997098;28;20044;-64
2023/01/24 06:44:45;;;;;;;23.67;20.15;;;2.70;99.90;;;;;;5031566;28;20838;-64
2023/01/24 06:47:11;;;;;;;25.10;19.92;;;2.60;99.90;;;;;;5015386;28;20259;-64
2023/01/24 06:49:38;;;;;;;22.17;18.95;;;2.70;99.90;;;;;;5033133;28;20232;-64
2023/01/24 06:52:04;;;;;;;18.75;14.70;;;2.60;99.90;;;;;;4996311;28;20874;-63
2023/01/24 06:54:30;;;;;;;18.90;16.40;;;2.60;99.90;;;;;;5013154;28;20205;-63
2023/01/24 06:56:55;;;;;;;19.27;16.45;;;2.60;99.90;;;;;;5030129;28;20668;-64
2023/01/24 06:59:24;;;;;;;18.42;15.75;;;2.60;99.90;;;;;;4994826;28;20564;-65
2023/01/24 07:02:06;;;;;;;19.48;14.85;;;2.60;99.90;;;;;;5013080;28;20139;-63
2023/01/24 07:04:31;;;;;;;18.48;15.23;;;2.50;99.90;;;;;;5033052;28;20049;-64
2023/01/24 07:06:57;;;;;;;19.20;16.17;;;2.50;99.90;;;;;;5004317;28;20045;-63
2023/01/24 07:09:23;;;;;;;18.95;16.20;;;2.60;99.90;;;;;;4995040;28;20036;-63
2023/01/24 07:11:52;;;;;;;23.52;18.70;;;2.50;99.90;;;;;;5035509;28;20037;-63
2023/01/24 07:14:18;;;;;;;18.85;15.57;;;2.60;99.90;;;;;;5017662;28;20116;-63
2023/01/24 07:16:44;;;;;;;23.17;19.02;;;2.60;99.90;;;;;;5037068;28;20051;-65
2023/01/24 07:19:16;;;;;;;21.85;17.25;;;2.50;99.90;;;;;;5031063;28;20150;-63
2023/01/24 07:21:42;;;;;;;22.70;19.20;;;2.50;99.90;;;;;;5013886;28;20049;-63
2023/01/24 07:24:17;;;;;;;20.88;18.52;;;2.50;99.90;;;;;;5014993;28;20384;-63
2023/01/24 07:26:43;;;;;;;20.35;16.17;;;2.60;99.90;;;;;;5018413;28;20407;-63
2023/01/24 07:29:09;;;;;;;21.67;17.10;;;2.60;99.90;;;;;;5016899;28;20502;-63
2023/01/24 07:31:35;;;;;;;23.05;18.15;;;2.50;99.90;;;;;;4992856;28;20099;-64
2023/01/24 07:34:01;;;;;;;19.90;14.70;;;2.50;99.90;;;;;;4997800;28;20362;-65
2023/01/24 07:36:26;;;;;;;20.75;15.35;;;2.60;99.90;;;;;;5011527;28;20049;-64
2023/01/24 07:38:56;;;;;;;18.65;16.38;;;2.60;99.90;;;;;;5032978;28;20049;-64
2023/01/24 07:41:22;;;;;;;20.70;14.63;;;2.60;99.90;;;;;;5031294;28;20422;-64
2023/01/24 07:43:48;;;;;;;20.77;16.13;;;2.60;99.90;;;;;;5013930;28;20347;-64
2023/01/24 07:46:14;;;;;;;16.73;13.80;;;2.50;99.90;;;;;;5014096;28;20029;-64
2023/01/24 07:48:40;;;;;;;18.25;14.25;;;2.50;99.90;;;;;;5032085;28;20040;-63
2023/01/24 07:51:06;;;;;;;18.02;15.27;;;2.50;99.90;;;;;;5011610;28;20106;-64
2023/01/24 07:53:32;;;;;;;19.67;17.48;;;2.50;99.90;;;;;;4994894;28;20222;-64
2023/01/24 07:56:01;;;;;;;20.67;16.67;;;2.50;99.90;;;;;;4995076;28;20644;-63
2023/01/24 07:58:27;;;;;;;23.70;20.08;;;2.60;99.90;;;;;;5034827;28;20112;-63
2023/01/24 08:00:53;;;;;;;21.17;17.50;;;2.50;99.90;;;;;;5034275;28;20075;-64
2023/01/24 08:03:25;;;;;;;24.10;20.15;;;2.60;99.90;;;;;;5096916;27;1302894;-63
2023/01/24 08:05:51;;;;;;;24.75;20.10;;;2.60;99.90;;;;;;5126771;27;20039;-63
2023/01/24 08:08:17;;;;;;;21.02;17.38;;;2.60;99.90;;;;;;5094016;27;20442;-64
2023/01/24 08:10:42;;;;;;;23.77;20.50;;;2.60;99.90;;;;;;5093659;27;20045;-64
2023/01/24 08:13:08;;;;;;;19.67;17.10;;;2.60;99.90;;;;;;5112605;27;20043;-63
2023/01/24 08:15:34;;;;;;;22.33;18.15;;;2.60;99.90;;;;;;5113129;27;20039;-64
2023/01/24 08:18:02;;;;;;;19.35;16.50;;;2.50;99.90;;;;;;5127759;27;20050;-65
2023/01/24 08:20:29;;;;;;;17.52;14.40;;;2.60;99.90;;;;;;5102153;27;20412;-64
2023/01/24 08:22:55;;;;;;;16.42;14.13;;;2.60;99.90;;;;;;5109097;27;20674;-64
2023/01/24 08:25:21;;;;;;;20.83;17.13;;;2.60;99.90;;;;;;5107575;27;20590;-64
2023/01/24 08:27:47;;;;;;;19.85;16.08;;;2.60;99.90;;;;;;5110685;27;20142;-62
2023/01/24 08:30:13;;;;;;;20.17;15.05;;;2.60;99.90;;;;;;5110703;27;20053;-64
2023/01/24 08:32:39;;;;;;;19.58;16.77;;;2.60;99.90;;;;;;5107282;27;20042;-63
2023/01/24 08:35:05;;;;;;;18.42;14.68;;;2.60;99.90;;;;;;5091036;27;20080;-65
2023/01/24 08:37:31;;;;;;;19.63;15.20;;;2.60;99.90;;;;;;5106583;27;20520;-63
2023/01/24 08:39:56;;;;;;;22.73;18.25;;;2.60;99.90;;;;;;5076799;27;20057;-64
2023/01/24 08:42:23;;;;;;;21.05;17.75;;;2.60;99.90;;;;;;5060387;28;20056;-64
2023/01/24 08:44:50;;;;;;;22.83;17.48;;;2.60;99.90;;;;;;5074117;28;20397;-63
2023/01/24 08:47:15;;;;;;;20.60;17.30;;;2.60;99.90;;;;;;5067805;28;20048;-63
2023/01/24 08:49:41;;;;;;;22.83;18.95;;;2.60;99.90;;;;;;5083842;28;20047;-64
2023/01/24 08:52:07;;;;;;;20.63;16.90;;;2.60;99.90;;;;;;5086179;28;20039;-63
2023/01/24 08:54:35;;;;;;;22.17;17.92;;;2.60;99.90;;;;;;5083047;28;20574;-63
2023/01/24 08:57:02;;;;;;;21.23;16.90;;;2.60;99.90;;;;;;5083652;28;20069;-63
2023/01/24 08:59:28;;;;;;;22.42;19.17;;;2.60;99.90;;;;;;5082167;28;20082;-64
2023/01/24 09:01:54;;;;;;;20.73;18.05;;;2.60;99.90;;;;;;5065260;28;20134;-63
2023/01/24 09:04:20;;;;;;;20.75;17.30;;;2.60;99.90;;;;;;5082444;28;20949;-64
2023/01/24 09:06:45;;;;;;;23.10;19.33;;;2.60;99.90;;;;;;5070558;28;20544;-63
2023/01/24 09:09:11;;;;;;;23.48;19.85;;;2.60;99.90;;;;;;5069742;28;20039;-63
2023/01/24 09:11:37;;;;;;;21.50;18.75;;;2.60;99.90;;;;;;5067343;28;20180;-64
2023/01/24 09:14:03;;;;;;;22.10;18.40;;;2.60;99.90;;;;;;5093817;28;20055;-64
2023/01/24 09:16:29;;;;;;;19.50;16.33;;;2.70;99.90;;;;;;5070421;28;20085;-65
2023/01/24 09:18:55;;;;;;;18.63;16.52;;;2.60;99.90;;;;;;5088126;28;20071;-63
2023/01/24 09:21:21;;;;;;;19.90;17.77;;;2.60;99.90;;;;;;5087249;28;20047;-63
2023/01/24 09:23:47;;;;;;;18.80;16.55;;;2.60;99.90;;;;;;5070574;28;20059;-64
2023/01/24 09:26:13;;;;;;;18.75;16.08;;;2.60;99.90;;;;;;5069610;28;20119;-64
2023/01/24 09:28:42;;;;;;;18.67;15.38;;;2.60;99.90;;;;;;5072922;28;20057;-64
2023/01/24 09:31:08;;;;;;;20.80;16.42;;;2.70;99.90;;;;;;5052106;28;20040;-64
2023/01/24 09:33:35;;;;;;;20.17;18.02;;;2.70;99.90;;;;;;5054070;28;20048;-64
2023/01/24 09:36:02;;;;;;;19.55;17.38;;;2.70;99.90;;;;;;5088513;28;20042;-63
2023/01/24 09:38:31;;;;;;;20.17;18.08;;;2.70;99.90;;;;;;5090331;28;20686;-64
2023/01/24 09:41:12;;;;;;;23.08;20.77;;;2.70;99.90;;;;;;5073163;28;20039;-63
2023/01/24 09:43:42;;;;;;;23.17;20.77;;;2.70;99.90;;;;;;5091136;28;20051;-64
2023/01/24 09:46:48;;;;;;;24.75;22.15;;;2.70;99.90;;;;;;5055644;28;20128;-62
2023/01/24 09:49:25;;;;;;;22.58;18.60;;;2.70;99.90;;;;;;5041044;28;20051;-63
2023/01/24 09:51:53;;;;;;;24.35;20.95;;;2.70;99.90;;;;;;5070624;28;20122;-64
2023/01/24 09:54:44;;;;;;;30.35;27.10;;;2.80;99.90;;;;;;5055598;28;20043;-64
2023/01/24 09:57:50;;;;;;;23.98;21.48;;;2.80;99.90;;;;;;5071162;28;20046;-64
2023/01/24 10:00:24;;;;;;;23.55;21.13;;;2.80;99.90;;;;;;5091086;28;20054;-63
2023/01/24 10:02:49;;;;;;;20.70;18.23;;;2.80;99.90;;;;;;5054176;28;20452;-63
2023/01/24 10:05:16;;;;;;;20.27;18.17;;;2.80;99.90;;;;;;5056305;28;20051;-63
2023/01/24 10:07:45;;;;;;;20.25;18.13;;;2.80;99.90;;;;;;5053757;28;20460;-63
2023/01/24 10:10:29;;;;;;;23.63;21.13;;;2.80;99.90;;;;;;5070940;28;20493;-63
2023/01/24 10:13:19;;;;;;;26.05;23.33;;;2.80;99.90;;;;;;5089859;28;20662;-63
2023/01/24 10:16:22;;;;;;;21.67;19.38;;;2.80;99.90;;;;;;5073055;28;20093;-63
2023/01/24 10:19:07;;;;;;;25.90;23.20;;;2.90;99.90;;;;;;5054661;28;20039;-64
2023/01/24 10:21:47;;;;;;;22.58;20.15;;;2.90;99.90;;;;;;5072099;28;20093;-63
2023/01/24 10:24:20;;;;;;;25.20;22.60;;;2.90;99.90;;;;;;5073360;28;20072;-63
2023/01/24 10:26:52;;;;;;;20.05;17.80;;;2.80;99.90;;;;;;5070325;28;20769;-63
2023/01/24 10:29:22;;;;;;;24.42;21.77;;;2.90;99.90;;;;;;5090036;28;20039;-64
2023/01/24 10:32:14;;;;;;;21.00;17.77;;;2.90;99.90;;;;;;5072040;28;20047;-63
2023/01/24 10:34:46;;;;;;;22.50;19.75;;;2.90;99.90;;;;;;5069666;28;20110;-63
2023/01/24 10:37:25;;;;;;;18.63;15.85;;;2.80;99.90;;;;;;5071760;28;20202;-63
2023/01/24 10:39:51;;;;;;;26.50;23.67;;;2.90;99.90;;;;;;5054403;28;20064;-63
2023/01/24 10:42:27;;;;;;;29.45;26.45;;;2.90;99.90;;;;;;5088746;28;20040;-64
2023/01/24 10:44:57;;;;;;;26.73;23.92;;;2.90;99.90;;;;;;5089795;28;20074;-63
2023/01/24 10:47:56;;;;;;;21.00;18.70;;;2.90;99.90;;;;;;5090444;28;20496;-64
2023/01/24 10:50:23;;;;;;;22.85;20.42;;;2.90;99.90;;;;;;5090075;28;20327;-64
2023/01/24 10:52:49;;;;;;;25.02;22.48;;;2.90;99.90;;;;;;5088321;28;20261;-64
2023/01/24 10:55:34;;;;;;;24.45;21.85;;;2.90;99.90;;;;;;5071337;28;20047;-65
2023/01/24 10:58:03;;;;;;;25.42;22.88;;;2.90;99.90;;;;;;5070754;28;20127;-63
2023/01/24 11:00:35;;;;;;;24.65;22.15;;;3.00;99.90;;;;;;5090556;28;20039;-64
2023/01/24 11:03:16;;;;;;;26.38;23.60;;;3.00;99.90;;;;;;5087399;28;20066;-64
2023/01/24 11:05:51;;;;;;;28.20;24.33;;;3.00;99.90;;;;;;5087683;28;20170;-64
2023/01/24 11:08:19;;;;;;;28.65;25.65;;;3.00;99.90;;;;;;5054626;28;20036;-64
2023/01/24 11:10:45;;;;;;;30.25;27.02;;;3.00;99.90;;;;;;5090594;28;20039;-63
2023/01/24 11:13:37;;;;;;;22.13;18.23;;;3.00;99.90;;;;;;5070512;28;20062;-63
2023/01/24 11:16:26;;;;;;;21.08;17.58;;;3.00;99.90;;;;;;5071068;28;20039;-63
2023/01/24 11:18:54;;;;;;;21.73;19.38;;;3.00;99.90;;;;;;5070171;28;20595;-63
2023/01/24 11:21:20;;;;;;;22.85;20.45;;;3.00;99.90;;;;;;5089336;28;21092;-63
2023/01/24 11:24:20;;;;;;;20.60;18.38;;;3.00;99.90;;;;;;5070965;28;20038;-62
2023/01/24 11:26:54;;;;;;;25.35;22.73;;;3.00;99.90;;;;;;5090566;28;20119;-63
2023/01/24 11:29:21;;;;;;;21.55;18.95;;;3.00;99.90;;;;;;5071589;28;20035;-62
2023/01/24 11:31:56;;;;;;;23.20;20.90;;;3.00;99.90;;;;;;5072108;28;20554;-63
2023/01/24 11:34:43;;;;;;;23.55;19.67;;;3.00;99.90;;;;;;5071487;28;20047;-63
2023/01/24 11:37:21;;;;;;;23.13;20.73;;;3.00;99.90;;;;;;5090441;28;20031;-63
2023/01/24 11:39:53;;;;;;;26.05;22.48;;;3.00;99.90;;;;;;5089512;28;20526;-63
2023/01/24 11:42:58;;;;;;;25.38;22.40;;;3.00;99.90;;;;;;5071405;28;20043;-62
2023/01/24 11:45:57;;;;;;;23.70;20.23;;;3.10;99.90;;;;;;5051539;28;20043;-63
2023/01/24 11:48:31;;;;;;;25.42;22.73;;;3.10;99.90;;;;;;5091457;28;20039;-63
2023/01/24 11:51:14;;;;;;;24.13;21.63;;;3.10;99.90;;;;;;5088296;28;20282;-62
2023/01/24 11:53:56;;;;;;;22.38;19.73;;;3.10;99.90;;;;;;5088791;28;20119;-63
2023/01/24 11:56:53;;;;;;;22.23;19.83;;;3.10;99.90;;;;;;5053787;28;20458;-62
2023/01/24 11:59:30;;;;;;;24.30;21.80;;;3.10;99.90;;;;;;5088971;28;20722;-65
2023/01/24 12:02:17;;;;;;;23.70;20.83;;;3.10;99.90;;;;;;5067900;28;20048;-62
2023/01/24 12:04:59;;;;;;;25.48;21.17;;;3.00;99.90;;;;;;5083915;28;20039;-62
2023/01/24 12:07:48;;;;;;;27.55;24.45;;;3.10;99.90;;;;;;5086080;28;20032;-63
2023/01/24 12:10:20;;;;;;;26.38;23.23;;;3.00;99.90;;;;;;5048305;28;20140;-63
2023/01/24 12:13:21;;;;;;;24.35;21.67;;;3.00;99.90;;;;;;5066911;28;20080;-64
2023/01/24 12:16:02;;;;;;;24.08;21.60;;;3.00;99.90;;;;;;5084796;28;20130;-63
2023/01/24 12:18:36;;;;;;;25.45;22.70;;;3.10;99.90;;;;;;5051494;28;20500;-64
2023/01/24 12:21:04;;;;;;;28.58;24.20;;;3.10;99.90;;;;;;5066552;28;20041;-63
2023/01/24 12:23:51;;;;;;;24.08;20.23;;;3.10;99.90;;;;;;5066152;28;20460;-62
2023/01/24 12:26:51;;;;;;;23.77;21.25;;;3.10;99.90;;;;;;5086400;28;20036;-63
2023/01/24 12:29:53;;;;;;;25.17;22.45;;;3.00;99.90;;;;;;5040987;28;20069;-62
2023/01/24 12:32:33;;;;;;;25.08;22.38;;;3.10;99.90;;;;;;5067253;28;20089;-63
2023/01/24 12:35:09;;;;;;;24.88;22.25;;;3.10;99.90;;;;;;5068539;28;20340;-63
2023/01/24 12:37:52;;;;;;;23.50;20.98;;;3.10;99.90;;;;;;5065407;28;20245;-63
2023/01/24 12:40:35;;;;;;;23.65;20.67;;;3.10;99.90;;;;;;5065587;28;20099;-62
2023/01/24 12:43:09;;;;;;;27.23;22.20;;;3.00;99.90;;;;;;5066131;28;20806;-63
2023/01/24 12:45:58;;;;;;;25.33;18.50;;;3.10;99.90;;;;;;5065093;28;20048;-63
2023/01/24 12:48:46;;;;;;;26.55;23.08;;;3.00;99.90;;;;;;5065473;28;20031;-63
2023/01/24 12:51:39;;;;;;;27.05;24.15;;;3.00;99.90;;;;;;5089789;28;20425;-63
2023/01/24 12:54:16;;;;;;;23.65;20.35;;;3.00;99.90;;;;;;5087631;28;20419;-62
2023/01/24 12:57:01;;;;;;;27.88;23.23;;;3.00;99.90;;;;;;5069230;28;20061;-64
2023/01/24 12:59:30;;;;;;;29.77;24.30;;;3.00;99.90;;;;;;5070367;28;20443;-63
2023/01/24 13:02:27;;;;;;;24.55;20.48;;;3.00;99.90;;;;;;5089496;28;20048;-63
2023/01/24 13:05:20;;;;;;;25.55;22.35;;;3.00;99.90;;;;;;5087466;28;20270;-62
2023/01/24 13:08:19;;;;;;;25.85;22.48;;;3.00;99.90;;;;;;5089091;28;20039;-64
2023/01/24 13:10:51;;;;;;;28.40;24.55;;;3.00;99.90;;;;;;5067510;28;20039;-63
2023/01/24 13:13:23;;;;;;;27.00;23.50;;;3.00;99.90;;;;;;5070203;28;20043;-64
2023/01/24 13:16:17;;;;;;;25.77;21.20;;;3.00;99.90;;;;;;5069587;28;20724;-62
2023/01/24 13:18:54;;;;;;;30.05;25.40;;;3.00;99.90;;;;;;5040771;28;20090;-63
2023/01/24 13:21:28;;;;;;;28.65;24.45;;;3.00;99.90;;;;;;5086493;28;20038;-63
2023/01/24 13:24:03;;;;;;;25.67;22.83;;;2.90;99.90;;;;;;5056576;28;20042;-63
2023/01/24 13:26:28;;;;;;;27.70;24.55;;;2.90;99.90;;;;;;5071915;28;20068;-64
2023/01/24 13:29:08;;;;;;;30.38;25.20;;;2.90;99.90;;;;;;5089826;28;20028;-63
2023/01/24 13:31:33;;;;;;;31.05;24.98;;;2.90;99.90;;;;;;5068424;28;20066;-64
2023/01/24 13:34:04;;;;;;;33.58;28.30;;;2.90;99.90;;;;;;5070257;28;20071;-64